createdAt,value
2023-03-23T00:03:09.698Z,98602.49
2023-03-23T00:07:09.079Z,98654.31999999999
2023-03-23T00:11:09.356Z,98660.53
2023-03-23T00:15:12.843Z,98656.8
2023-03-23T00:19:13.095Z,98638.49
2023-03-23T00:23:09.117Z,98641.76999999999
2023-03-23T00:27:12.476Z,98656.14
2023-03-23T00:31:09.771Z,98663.73
2023-03-23T00:35:09.411Z,98674.39
2023-03-23T00:39:09.125Z,98686.93
2023-03-23T00:43:13.926Z,98688.62000000001
2023-03-23T00:47:10.176Z,98683.59
2023-03-23T00:51:11.770Z,98670.7
2023-03-23T00:55:09.419Z,98691.61
2023-03-23T01:03:12.107Z,98702.08
2023-03-23T01:07:12.475Z,98687.61
2023-03-23T01:11:09.641Z,98688.99
2023-03-23T01:15:10.007Z,98685.83
2023-03-23T01:19:09.651Z,98691.56
2023-03-23T01:23:09.714Z,98703.37
2023-03-23T01:27:09.366Z,98702.5
2023-03-23T01:31:14.209Z,98709.89
2023-03-23T01:35:09.867Z,98706.48
2023-03-23T01:39:09.624Z,98707.47
2023-03-23T01:43:14.101Z,98714.45
2023-03-23T01:47:09.392Z,98711.77
2023-03-23T01:51:15.283Z,98712.95999999999
2023-03-23T01:55:09.544Z,98724.82
2023-03-23T01:59:10.744Z,98719.48
2023-03-23T02:03:13.470Z,98711.86
2023-03-23T02:07:12.805Z,98723.55
2023-03-23T02:11:21.853Z,98727.09
2023-03-23T02:15:10.773Z,98730.22
2023-03-23T02:19:26.420Z,98728.3
2023-03-23T02:27:16.797Z,98722.02
2023-03-23T02:31:20.983Z,98726.28
2023-03-23T02:35:15.441Z,98726.87
2023-03-23T02:39:14.249Z,98733.37
2023-03-23T02:43:14.514Z,98732.84
2023-03-23T02:47:15.528Z,98730.48999999999
2023-03-23T02:51:11.985Z,98739.45999999999
2023-03-23T02:55:11.430Z,98737.13
2023-03-23T02:59:09.771Z,98737.8
2023-03-23T03:03:14.918Z,98749.18000000001
2023-03-23T03:07:29.336Z,98750.25
2023-03-23T03:11:12.544Z,98753.89
2023-03-23T03:23:12.769Z,98749.18000000001
2023-03-23T03:31:09.851Z,98744.7
2023-03-23T03:39:10.227Z,98751.92
2023-03-23T03:43:09.739Z,98751.73
2023-03-23T03:47:09.759Z,98758.37
2023-03-23T03:51:09.701Z,98760.38
2023-03-23T03:55:10.728Z,98759.52
2023-03-23T03:59:21.416Z,98761.32
2023-03-23T04:03:09.881Z,98765.53
2023-03-23T04:07:10.966Z,98767.13
2023-03-23T04:11:12.188Z,98769.7
2023-03-23T04:19:13.017Z,98780.40999999999
2023-03-23T04:23:09.812Z,98789.63
2023-03-23T04:27:12.909Z,98787.01999999999
2023-03-23T04:31:12.686Z,98797.31
2023-03-23T04:35:14.172Z,98797.09
2023-03-23T04:39:10.344Z,98796.78
2023-03-23T04:43:12.561Z,98793.97
2023-03-23T04:47:09.787Z,98810.94
2023-03-23T04:51:09.956Z,98807.17
2023-03-23T04:55:09.941Z,98808.62
2023-03-23T04:59:10.770Z,98811.49
2023-03-23T05:03:10.136Z,98814.37
2023-03-23T05:07:11.363Z,98809.07999999999
2023-03-23T05:11:09.936Z,98804.58
2023-03-23T05:15:11.484Z,98809.16
2023-03-23T05:19:09.967Z,98816.86
2023-03-23T05:23:11.026Z,98819.44
2023-03-23T05:27:11.001Z,98821.28
2023-03-23T05:31:09.983Z,98822.56999999999
2023-03-23T05:35:09.922Z,98822.22
2023-03-23T05:39:11.310Z,98821.39
2023-03-23T05:47:10.086Z,98827.48
2023-03-23T05:51:09.985Z,98825.48000000001
2023-03-23T05:55:11.450Z,98824.59999999999
2023-03-23T05:59:10.817Z,98831.69
2023-03-23T06:03:10.111Z,98826.87
2023-03-23T06:11:10.502Z,98826.87
2023-03-23T06:15:11.091Z,98822.86
2023-03-23T06:19:11.097Z,98825.44
2023-03-23T06:23:10.254Z,98826.9
2023-03-23T06:27:11.396Z,98833.69
2023-03-23T06:31:11.194Z,98828.21
2023-03-23T06:35:11.468Z,98824.01999999999
2023-03-23T06:39:11.035Z,98822.17000000001
2023-03-23T06:43:10.304Z,98821.98
2023-03-23T06:47:10.162Z,98823.85
2023-03-23T06:51:10.170Z,98815.59
2023-03-23T06:55:10.222Z,98808.94
2023-03-23T06:59:10.338Z,98807.15
2023-03-23T07:03:10.322Z,98805.12999999999
2023-03-23T07:07:14.243Z,98808.29
2023-03-23T07:11:12.387Z,98806.87000000001
2023-03-23T07:15:10.999Z,98803.45
2023-03-23T07:19:10.387Z,98798.91
2023-03-23T07:23:10.740Z,98796.94
2023-03-23T07:27:10.516Z,98791.13
2023-03-23T07:31:10.575Z,98793.06
2023-03-23T07:35:10.969Z,98788.33
2023-03-23T07:39:10.382Z,98792.46
2023-03-23T07:43:10.605Z,98799.41
2023-03-23T07:47:10.502Z,98795.61
2023-03-23T07:51:10.409Z,98798.90000000001
2023-03-23T07:55:17.344Z,98803.05
2023-03-23T07:59:11.236Z,98814.01
2023-03-23T08:03:10.514Z,98813.01
2023-03-23T08:07:12.421Z,98812.47
2023-03-23T08:11:10.956Z,98822.89
2023-03-23T08:15:12.934Z,98821.83
2023-03-23T08:19:10.706Z,98817.64
2023-03-23T08:23:10.789Z,98827.12
2023-03-23T08:27:10.697Z,98817.44
2023-03-23T08:31:12.833Z,98815.64
2023-03-23T08:35:12.783Z,98813.5
2023-03-23T08:39:11.000Z,98810.22
2023-03-23T08:43:10.947Z,98803.44
2023-03-23T08:47:10.800Z,98795.20999999999
2023-03-23T08:51:11.012Z,98807.84999999999
2023-03-23T08:55:12.482Z,98826.17
2023-03-23T08:59:12.248Z,98818.05
2023-03-23T09:03:11.251Z,98818.46
2023-03-23T09:06:13.454Z,98818.46
2023-03-23T09:07:12.294Z,98821.90000000001
2023-03-23T09:11:11.926Z,98820.15
2023-03-23T09:19:12.501Z,98809.38
2023-03-23T09:23:13.053Z,98817.17
2023-03-23T09:27:10.730Z,98835.16
2023-03-23T09:31:11.018Z,98826.67
2023-03-23T09:35:12.877Z,98818.25
2023-03-23T09:39:11.630Z,98816.88
2023-03-23T09:43:22.620Z,98816.61
2023-03-23T09:47:19.925Z,98827.76
2023-03-23T09:51:18.754Z,98824.36
2023-03-23T09:55:14.571Z,98814.04
2023-03-23T09:59:16.888Z,98818.45
2023-03-23T10:03:15.556Z,98819.98
2023-03-23T10:07:13.679Z,98828.68
2023-03-23T10:11:20.417Z,98827.98
2023-03-23T10:15:16.153Z,98821.39
2023-03-23T10:19:17.052Z,98827.33
2023-03-23T10:23:15.666Z,98815.39
2023-03-23T10:31:15.899Z,98838.78
2023-03-23T10:35:15.612Z,98856.91
2023-03-23T10:39:14.424Z,98848.71
2023-03-23T10:43:11.140Z,98832.89
2023-03-23T10:47:13.159Z,98839.98
2023-03-23T10:51:13.731Z,98859.14
2023-03-23T10:55:14.763Z,98843.98
2023-03-23T10:59:14.086Z,98839.81
2023-03-23T11:03:23.153Z,98840.93000000001
2023-03-23T11:07:19.716Z,98836.47
2023-03-23T11:11:15.966Z,98857.48
2023-03-23T11:15:23.339Z,98852.94
2023-03-23T11:19:13.828Z,98845.08
2023-03-23T11:23:20.023Z,98848.20999999999
2023-03-23T11:27:12.310Z,98844.23000000001
2023-03-23T11:35:17.591Z,98843.19
2023-03-23T11:39:22.397Z,98839.95
2023-03-23T11:43:15.051Z,98848.42
2023-03-23T11:55:19.109Z,98858.7
2023-03-23T11:59:14.910Z,98856.91
2023-03-23T12:03:21.859Z,98863.36
2023-03-23T12:07:26.651Z,98861.77
2023-03-23T12:11:17.090Z,98856.05
2023-03-23T12:15:22.495Z,98845.29
2023-03-23T12:19:18.975Z,98828.18
2023-03-23T12:23:21.727Z,98825.42
2023-03-23T12:27:19.653Z,98814.51
2023-03-23T12:31:18.175Z,98821.08
2023-03-23T12:35:24.191Z,98816.79000000001
2023-03-23T12:39:30.904Z,98820.37
2023-03-23T12:43:18.056Z,98818.87000000001
2023-03-23T12:51:21.628Z,98817.11
2023-03-23T12:55:17.686Z,98816.48
2023-03-23T12:59:17.676Z,98799.33
2023-03-23T13:03:21.120Z,98792.56
2023-03-23T13:07:17.993Z,98783.33
2023-03-23T13:11:19.021Z,98782.92
2023-03-23T13:15:23.753Z,98759.74
2023-03-23T13:19:20.490Z,98755.26999999999
2023-03-23T13:23:15.577Z,98752.48
2023-03-23T13:27:12.068Z,98772.02
2023-03-23T13:31:13.831Z,98777.55
2023-03-23T13:35:15.598Z,98777.58
2023-03-23T13:39:19.509Z,98764.89
2023-03-23T13:43:12.342Z,98789.61
2023-03-23T13:47:26.688Z,98770.12
2023-03-23T13:51:25.034Z,98753.3
2023-03-23T13:55:29.618Z,98744.47
2023-03-23T13:59:15.542Z,98739.36
2023-03-23T14:03:14.594Z,98726.59999999999
2023-03-23T14:07:12.665Z,98743.3
2023-03-23T14:11:15.269Z,98744.25
2023-03-23T14:15:13.579Z,98750.09
2023-03-23T14:19:17.497Z,98761.73999999999
2023-03-23T14:23:16.320Z,98757.23000000001
2023-03-23T14:27:14.785Z,98753.05
2023-03-23T14:31:19.704Z,98745.67
2023-03-23T14:35:16.881Z,98750.45
2023-03-23T14:39:17.393Z,98748.94
2023-03-23T14:47:17.190Z,98718.45
2023-03-23T14:51:18.336Z,98709.74
2023-03-23T14:55:13.074Z,98702.04
2023-03-23T14:59:11.637Z,98703.91
2023-03-23T15:03:17.938Z,98699.1
2023-03-23T15:07:13.311Z,98696.75
2023-03-23T15:11:20.664Z,98706.43
2023-03-23T15:15:20.938Z,98698.69
2023-03-23T15:19:17.382Z,98695.4
2023-03-23T15:23:15.539Z,98694.86
2023-03-23T15:27:14.411Z,98702.62
2023-03-23T15:31:11.729Z,98695.86
2023-03-23T15:35:14.871Z,98708.97
2023-03-23T15:39:12.874Z,98714.25
2023-03-23T15:43:19.492Z,98706.58
2023-03-23T15:47:15.542Z,98698.96
2023-03-23T15:51:12.997Z,98701.09
2023-03-23T15:55:22.422Z,98717.19
2023-03-23T15:59:11.962Z,98713.73
2023-03-23T16:03:15.689Z,98710.88
2023-03-23T16:07:13.175Z,98715.11
2023-03-23T16:11:13.577Z,98713.65
2023-03-23T16:15:12.660Z,98694.83
2023-03-23T16:19:13.444Z,98691.45999999999
2023-03-23T16:27:12.516Z,98681.45
2023-03-23T16:31:11.946Z,98665.03
2023-03-23T16:35:12.608Z,98660.06999999999
2023-03-23T16:39:11.843Z,98649.34
2023-03-23T16:43:12.663Z,98643.8
2023-03-23T16:47:11.825Z,98641.6
2023-03-23T16:51:12.014Z,98639.65
2023-03-23T16:55:13.776Z,98639.70000000001
2023-03-23T16:59:12.231Z,98634.34
2023-03-23T17:03:12.316Z,98635.20999999999
2023-03-23T17:07:13.342Z,98638.53
2023-03-23T17:11:11.923Z,98624.1
2023-03-23T17:15:12.176Z,98601.37
2023-03-23T17:23:12.396Z,98577.17
2023-03-23T17:31:12.194Z,98571.03
2023-03-23T17:35:11.961Z,98562.13
2023-03-23T17:39:12.124Z,98555.7
2023-03-23T17:43:12.134Z,98546.26
2023-03-23T17:47:12.479Z,98556.84999999999
2023-03-23T17:51:12.145Z,98533.06999999999
2023-03-23T17:55:12.175Z,98537.05
2023-03-23T17:59:11.964Z,98522.13
2023-03-23T18:03:12.591Z,98520.14
2023-03-23T18:07:12.640Z,98503.2
2023-03-23T18:11:12.410Z,98495.75
2023-03-23T18:15:12.141Z,98503.05
2023-03-23T18:19:12.294Z,98495.23000000001
2023-03-23T18:23:12.950Z,98488.9
2023-03-23T18:27:12.648Z,98481.3
2023-03-23T18:31:15.879Z,98468.94
2023-03-23T18:35:12.320Z,98460.08
2023-03-23T18:39:12.144Z,98444.44
2023-03-23T18:43:12.835Z,98436.58
2023-03-23T18:47:12.373Z,98435.42
2023-03-23T18:51:12.412Z,98419.76
2023-03-23T18:55:12.279Z,98414.03
2023-03-23T18:59:12.341Z,98405.89
2023-03-23T19:03:13.897Z,98401.42
2023-03-23T19:07:14.006Z,98390.91
2023-03-23T19:11:12.709Z,98385.1
2023-03-23T19:15:12.870Z,98383.58
2023-03-23T19:19:12.454Z,98386.97
2023-03-23T19:23:12.240Z,98376.67
2023-03-23T19:27:12.322Z,98376.68
2023-03-23T19:31:14.586Z,98360.75
2023-03-23T19:35:12.410Z,98368.8
2023-03-23T19:39:12.542Z,98374.11
2023-03-23T19:43:12.499Z,98363.31
2023-03-23T19:47:13.296Z,98373.99
2023-03-23T19:51:16.555Z,98352.06
2023-03-23T19:55:12.552Z,98365.09
2023-03-23T19:59:15.097Z,98363.48000000001
2023-03-23T20:03:13.296Z,98372.79999999999
2023-03-23T20:07:12.827Z,98362.23
2023-03-23T20:11:16.291Z,98355.31
2023-03-23T20:15:12.542Z,98343.2
2023-03-23T20:19:12.405Z,98351.62
2023-03-23T20:23:12.521Z,98350.7
2023-03-23T20:31:20.944Z,98349.89
2023-03-23T20:39:18.065Z,98345.88
2023-03-23T20:43:12.900Z,98366.27
2023-03-23T20:47:12.713Z,98364.36
2023-03-23T20:55:14.285Z,98404.24
2023-03-23T20:59:13.427Z,98420.12
2023-03-23T21:03:13.014Z,98419.43
2023-03-23T21:07:12.708Z,98433.23000000001
2023-03-23T21:11:16.790Z,98427.29000000001
2023-03-23T21:15:12.844Z,98426.68
2023-03-23T21:19:13.067Z,98427.19
2023-03-23T21:27:12.573Z,98431.05
2023-03-23T21:31:14.087Z,98430.47
2023-03-23T21:39:14.376Z,98428.83
2023-03-23T21:43:12.732Z,98436.72
2023-03-23T21:47:12.920Z,98436.19
2023-03-23T21:51:14.149Z,98444.09000000001
2023-03-23T21:55:13.076Z,98421.45000000001
2023-03-23T21:59:12.650Z,98421.92
2023-03-23T22:03:15.031Z,98419.56
2023-03-23T22:07:13.386Z,98415.08
2023-03-23T22:11:20.527Z,98418.7
2023-03-23T22:15:14.094Z,98431.78
2023-03-23T22:19:12.944Z,98438.16
2023-03-23T22:23:12.862Z,98437.23
2023-03-23T22:27:13.043Z,98447.16
2023-03-23T22:31:16.504Z,98438.65
2023-03-23T22:35:12.990Z,98436.56
2023-03-23T22:39:12.767Z,98437.87
2023-03-23T22:43:12.920Z,98447.03
2023-03-23T22:47:12.835Z,98452.25
2023-03-23T22:51:15.005Z,98452.58
2023-03-23T22:55:13.737Z,98452.79000000001
2023-03-23T22:59:12.961Z,98451.79000000001
2023-03-23T23:03:13.037Z,98453.56
2023-03-23T23:07:13.540Z,98455.47
2023-03-23T23:11:16.326Z,98454.44
2023-03-23T23:15:14.778Z,98459.11
2023-03-23T23:19:13.731Z,98468.16
2023-03-23T23:23:13.275Z,98472.31
2023-03-23T23:27:13.731Z,98477.61
2023-03-23T23:31:25.134Z,98485.38
2023-03-23T23:35:13.116Z,98484.79999999999
2023-03-23T23:39:13.061Z,98489.18
2023-03-23T23:47:13.394Z,98495.22
2023-03-23T23:51:15.311Z,98495.88
2023-03-23T23:55:14.910Z,98494.26
2023-03-23T23:59:13.173Z,98495.62
